Time;durP1;ratioP1;P1;durP2;ratioP2;P2;SDS_P1;SDS_P2;PMS_P1;PMS_P2;Temp;Humidity;BMP_temperature;BMP_pressure;BME280_temperature;BME280_humidity;BME280_pressure;Samples;Min_cycle;Max_cycle;Signal;HPM_P1;HPM_P2
2021/03/28 00:01:08;;;;;;;11.17;8.90;;;;;;;4.33;100.00;95474.41;5109025;28;20298;-84
2021/03/28 00:03:40;;;;;;;11.37;7.40;;;;;;;4.31;100.00;95489.34;5109354;28;20238;-84
2021/03/28 00:06:13;;;;;;;10.93;7.17;;;;;;;4.20;100.00;95514.53;5108828;28;20656;-84
2021/03/28 00:08:43;;;;;;;11.33;8.30;;;;;;;4.08;100.00;95514.81;5108883;28;20190;-84
2021/03/28 00:11:20;;;;;;;11.07;7.90;;;;;;;3.79;100.00;95500.03;5108935;28;20195;-83
2021/03/28 00:13:51;;;;;;;10.17;8.27;;;;;;;3.63;100.00;95489.34;5108946;28;20241;-84
2021/03/28 00:16:20;;;;;;;9.27;7.77;;;;;;;3.71;100.00;95450.50;5108593;28;20297;-83
2021/03/28 00:19:00;;;;;;;10.77;8.50;;;;;;;3.73;100.00;95451.19;5108706;28;20253;-84
2021/03/28 00:21:30;;;;;;;12.60;8.07;;;;;;;3.62;100.00;95466.91;5108400;28;20271;-82
2021/03/28 00:24:13;;;;;;;11.37;7.80;;;;;;;3.56;100.00;95439.69;5108485;28;20199;-83
2021/03/28 00:26:45;;;;;;;8.47;7.40;;;;;;;3.86;100.00;95448.31;5108795;28;20569;-83
2021/03/28 00:29:23;;;;;;;9.10;7.87;;;;;;;4.09;100.00;95464.44;5108668;28;20222;-84
2021/03/28 00:31:59;;;;;;;10.07;6.70;;;;;;;3.86;100.00;95454.34;5108737;28;20612;-83
2021/03/28 00:34:30;;;;;;;10.77;7.47;;;;;;;3.92;100.00;95450.38;5095271;28;20283;-83
2021/03/28 00:37:01;;;;;;;8.00;6.17;;;;;;;3.83;100.00;95480.59;5094784;28;20238;-83
2021/03/28 00:39:47;;;;;;;8.93;7.53;;;;;;;3.80;100.00;95449.69;5095156;28;20246;-83
2021/03/28 00:42:27;;;;;;;8.43;7.10;;;;;;;3.90;100.00;95437.50;5094861;28;20212;-83
2021/03/28 00:44:59;;;;;;;8.90;7.33;;;;;;;3.92;100.00;95453.78;5094654;28;20198;-83
2021/03/28 00:47:30;;;;;;;11.03;7.63;;;;;;;4.11;100.00;95452.94;5094489;28;20220;-83
2021/03/28 00:50:26;;;;;;;9.83;6.97;;;;;;;4.14;100.00;95477.84;5095018;28;20188;-83
2021/03/28 00:52:58;;;;;;;10.20;7.17;;;;;;;3.75;100.00;95488.25;5094484;28;20563;-83
2021/03/28 00:55:27;;;;;;;8.77;6.97;;;;;;;3.78;100.00;95481.00;5094536;28;20646;-83
2021/03/28 00:58:08;;;;;;;12.13;7.43;;;;;;;3.91;100.00;95483.31;5094281;28;20196;-83
2021/03/28 01:01:07;;;;;;;10.17;7.60;;;;;;;3.66;100.00;95483.88;5094515;28;20188;-83
2021/03/28 01:03:58;;;;;;;11.40;7.30;;;;;;;3.28;100.00;95469.84;5085132;28;20200;-83
2021/03/28 01:06:34;;;;;;;8.70;7.37;;;;;;;3.27;100.00;95437.88;5094172;28;20185;-83
2021/03/28 01:09:15;;;;;;;9.80;7.83;;;;;;;3.06;100.00;95430.19;5094688;28;20619;-83
2021/03/28 01:12:26;;;;;;;9.53;7.00;;;;;;;2.86;100.00;95390.38;5093928;28;20269;-83
2021/03/28 01:15:20;;;;;;;8.20;6.83;;;;;;;2.86;100.00;95354.03;5089890;28;20206;-83
2021/03/28 01:17:51;;;;;;;11.07;7.10;;;;;;;2.75;100.00;95345.56;5093985;28;20192;-83
2021/03/28 01:20:36;;;;;;;7.87;6.53;;;;;;;2.72;100.00;95354.41;5094007;28;20180;-83
2021/03/28 01:23:19;;;;;;;8.10;6.80;;;;;;;2.84;100.00;95349.94;5093628;28;20236;-82
2021/03/28 01:26:17;;;;;;;9.63;7.53;;;;;;;3.24;100.00;95364.63;5094276;28;20561;-83
2021/03/28 01:28:49;;;;;;;7.60;6.80;;;;;;;3.46;100.00;95369.53;5093791;28;20237;-83
2021/03/28 01:31:23;;;;;;;8.30;6.63;;;;;;;3.41;100.00;95395.09;5093780;28;20230;-84
2021/03/28 01:33:56;;;;;;;10.57;7.63;;;;;;;3.27;100.00;95401.53;5093678;28;20190;-83
2021/03/28 01:36:29;;;;;;;11.87;10.17;;;;;;;3.34;100.00;95436.38;5093820;28;20218;-83
2021/03/28 01:39:05;;;;;;;13.47;12.17;;;;;;;3.16;100.00;95456.19;5093561;28;20188;-83
2021/03/28 01:41:37;;;;;;;8.10;7.23;;;;;;;3.31;100.00;95467.00;5093846;28;20349;-83
2021/03/28 01:44:14;;;;;;;10.73;8.47;;;;;;;3.17;100.00;95464.78;5093118;28;20185;-83
2021/03/28 01:46:54;;;;;;;10.73;6.77;;;;;;;3.33;100.00;95467.69;5092952;28;20618;-83
2021/03/28 01:49:37;;;;;;;8.17;7.27;;;;;;;3.13;100.00;95502.34;5093673;28;20216;-83
2021/03/28 01:52:12;;;;;;;12.17;8.27;;;;;;;3.28;100.00;95495.81;5093061;28;20191;-83
2021/03/28 01:55:00;;;;;;;10.43;8.33;;;;;;;3.50;100.00;95506.00;5093772;28;20211;-83
2021/03/28 01:57:44;;;;;;;12.93;8.03;;;;;;;3.33;100.00;95549.03;5093491;28;20610;-83
2021/03/28 02:00:41;;;;;;;12.00;8.10;;;;;;;3.48;100.00;95561.66;5093673;28;20611;-83
2021/03/28 02:03:19;;;;;;;10.33;6.90;;;;;;;3.40;100.00;95562.31;5092153;28;20251;-83
2021/03/28 02:06:06;;;;;;;8.27;6.90;;;;;;;3.47;100.00;95541.81;5093188;28;20184;-83
2021/03/28 02:08:51;;;;;;;7.20;6.00;;;;;;;3.56;100.00;95549.63;5092978;28;20283;-83
2021/03/28 02:11:42;;;;;;;8.57;7.47;;;;;;;3.64;100.00;95566.31;5092749;28;20188;-82
2021/03/28 02:14:49;;;;;;;8.23;6.93;;;;;;;3.67;100.00;95571.25;5093102;28;20657;-83
2021/03/28 02:17:29;;;;;;;9.07;6.77;;;;;;;3.48;100.00;95564.25;5080764;28;20200;-83
2021/03/28 02:20:09;;;;;;;9.57;6.10;;;;;;;3.56;100.00;95533.22;5092949;28;20283;-83
2021/03/28 02:22:46;;;;;;;9.50;7.67;;;;;;;3.51;100.00;95551.81;5092274;28;20227;-83
2021/03/28 02:25:19;;;;;;;8.13;6.67;;;;;;;3.53;100.00;95543.88;5092908;28;20184;-83
2021/03/28 02:27:53;;;;;;;8.17;6.67;;;;;;;3.18;100.00;95547.72;5092614;28;20271;-83
2021/03/28 02:30:30;;;;;;;8.50;6.77;;;;;;;3.49;100.00;95537.31;5092840;28;20183;-83
2021/03/28 02:33:20;;;;;;;11.07;7.57;;;;;;;3.49;100.00;95547.69;5092482;28;20184;-83
2021/03/28 02:36:19;;;;;;;9.40;7.17;;;;;;;3.39;100.00;95555.47;5092715;28;20557;-83
2021/03/28 02:39:01;;;;;;;10.30;6.40;;;;;;;3.41;100.00;95539.75;5092616;28;20195;-82
2021/03/28 02:41:47;;;;;;;8.13;7.33;;;;;;;3.51;100.00;95538.00;5092368;28;20226;-82
2021/03/28 02:44:27;;;;;;;9.77;6.83;;;;;;;3.53;100.00;95555.13;5092489;28;20245;-82
2021/03/28 02:47:02;;;;;;;8.47;6.77;;;;;;;3.01;100.00;95582.09;5092460;28;20222;-82
2021/03/28 02:49:58;;;;;;;6.53;5.87;;;;;;;3.16;100.00;95541.88;5092459;28;20184;-82
2021/03/28 02:52:54;;;;;;;8.50;6.97;;;;;;;3.31;100.00;95532.75;5092510;28;20185;-82
2021/03/28 02:55:49;;;;;;;7.57;6.43;;;;;;;3.31;100.00;95537.13;5089262;28;20225;-82
2021/03/28 02:58:25;;;;;;;9.27;7.27;;;;;;;3.47;100.00;95536.63;5092423;28;20268;-82
2021/03/28 03:01:14;;;;;;;7.83;6.93;;;;;;;3.36;100.00;95542.75;5092252;28;20184;-83
2021/03/28 03:04:12;;;;;;;11.53;7.10;;;;;;;3.43;100.00;95536.09;5092431;28;20207;-83
2021/03/28 03:07:11;;;;;;;10.33;6.97;;;;;;;3.32;100.00;95541.34;5092021;28;20184;-82
2021/03/28 03:10:00;;;;;;;10.87;7.30;;;;;;;3.32;100.00;95538.75;5077379;28;20196;-82
2021/03/28 03:12:40;;;;;;;7.60;6.47;;;;;;;3.19;100.00;95535.59;5091930;28;20588;-82
2021/03/28 03:15:15;;;;;;;8.47;7.23;;;;;;;3.40;100.00;95512.97;5092137;28;20238;-83
2021/03/28 03:18:18;;;;;;;11.13;7.57;;;;;;;3.37;100.00;95521.03;5092131;28;20563;-83
2021/03/28 03:21:06;;;;;;;8.57;6.97;;;;;;;3.44;100.00;95516.13;5091972;28;20566;-82
2021/03/28 03:24:18;;;;;;;7.87;6.30;;;;;;;3.23;100.00;95526.59;5092133;28;20196;-83
2021/03/28 03:27:35;;;;;;;8.80;7.10;;;;;;;3.49;100.00;95514.75;5092095;28;20192;-83
2021/03/28 03:30:18;;;;;;;10.67;7.80;;;;;;;3.39;100.00;95518.28;5092294;28;20581;-83
2021/03/28 03:33:25;;;;;;;8.33;7.43;;;;;;;3.36;100.00;95523.72;5091696;28;20640;-83
2021/03/28 03:36:03;;;;;;;9.13;7.23;;;;;;;3.16;100.00;95526.28;5091911;28;20728;-83
2021/03/28 03:38:57;;;;;;;8.40;7.53;;;;;;;3.36;100.00;95534.13;5091638;28;20184;-83
2021/03/28 03:41:45;;;;;;;8.50;6.67;;;;;;;3.30;100.00;95538.09;5091453;28;20232;-82
2021/03/28 03:44:19;;;;;;;8.83;6.97;;;;;;;3.16;100.00;95533.25;5075113;28;20223;-82
2021/03/28 03:47:09;;;;;;;15.37;8.27;;;;;;;2.93;100.00;95530.81;5091609;28;20187;-82
2021/03/28 03:50:12;;;;;;;8.43;6.87;;;;;;;3.18;100.00;95513.16;5091677;28;20275;-83
2021/03/28 03:53:08;;;;;;;8.43;6.57;;;;;;;3.15;100.00;95540.19;5091510;28;20246;-83
2021/03/28 03:55:41;;;;;;;10.97;6.77;;;;;;;3.20;100.00;95551.03;5092062;28;20245;-82
2021/03/28 03:58:28;;;;;;;7.10;6.40;;;;;;;3.00;100.00;95549.31;5091630;28;20279;-82
2021/03/28 04:01:09;;;;;;;21.03;15.20;;;;;;;2.93;100.00;95559.38;5091628;28;20184;-82
2021/03/28 04:03:49;;;;;;;21.10;15.30;;;;;;;2.98;100.00;95548.59;5091524;28;20176;-81
2021/03/28 04:06:46;;;;;;;11.30;9.73;;;;;;;3.14;100.00;95567.13;5091401;28;20245;-82
2021/03/28 04:09:25;;;;;;;10.77;9.13;;;;;;;3.23;100.00;95575.91;5094097;28;20185;-82
2021/03/28 04:12:09;;;;;;;11.20;8.90;;;;;;;3.16;100.00;95611.16;5095271;28;20181;-83
2021/03/28 04:14:56;;;;;;;10.77;8.13;;;;;;;3.02;100.00;95609.72;5095389;28;20308;-82
2021/03/28 04:17:47;;;;;;;9.23;8.23;;;;;;;3.20;100.00;95602.16;5094867;28;20193;-82
2021/03/28 04:20:21;;;;;;;7.83;7.03;;;;;;;3.24;100.00;95613.91;5095260;28;20188;-82
2021/03/28 04:23:20;;;;;;;8.97;7.53;;;;;;;3.27;100.00;95634.44;5094808;28;20618;-82
2021/03/28 04:26:00;;;;;;;12.43;9.33;;;;;;;3.32;100.00;95653.03;5092348;28;20199;-82
2021/03/28 04:28:49;;;;;;;10.17;7.50;;;;;;;3.24;100.00;95658.88;5094952;28;20188;-82
2021/03/28 04:31:58;;;;;;;9.80;8.00;;;;;;;3.37;100.00;95656.09;5095815;28;20632;-82
2021/03/28 04:34:28;;;;;;;9.30;7.63;;;;;;;3.48;100.00;95658.59;5095034;28;20232;-82
2021/03/28 04:37:24;;;;;;;8.63;7.73;;;;;;;3.30;100.00;95666.16;5094786;28;20271;-82
2021/03/28 04:40:27;;;;;;;7.63;6.93;;;;;;;3.39;100.00;95663.75;5094927;28;20272;-82
2021/03/28 04:43:27;;;;;;;7.67;6.80;;;;;;;3.28;100.00;95649.06;5094551;28;20712;-82
2021/03/28 04:46:26;;;;;;;9.50;6.90;;;;;;;3.37;100.00;95645.69;5094513;28;20203;-82
2021/03/28 04:49:22;;;;;;;14.50;12.40;;;;;;;3.39;100.00;95637.75;5094682;28;20207;-82
2021/03/28 04:52:25;;;;;;;17.53;13.37;;;;;;;3.20;100.00;95628.13;5094504;28;20276;-82
2021/03/28 04:55:28;;;;;;;16.57;11.03;;;;;;;3.43;100.00;95628.75;5094909;28;20564;-82
2021/03/28 04:58:10;;;;;;;17.83;13.40;;;;;;;3.39;100.00;95627.38;5094643;28;20238;-82
2021/03/28 05:01:03;;;;;;;25.43;18.13;;;;;;;3.42;100.00;95643.53;5094358;28;20273;-81
2021/03/28 05:04:02;;;;;;;13.20;11.07;;;;;;;3.31;100.00;95664.38;5094362;28;20298;-82
2021/03/28 05:06:59;;;;;;;8.90;7.40;;;;;;;3.65;100.00;95659.75;5094098;28;20283;-82
2021/03/28 05:10:11;;;;;;;9.50;8.50;;;;;;;3.50;100.00;95672.28;5094215;28;20200;-82
2021/03/28 05:13:06;;;;;;;10.43;9.43;;;;;;;3.61;100.00;95667.97;5051640;28;20217;-82
2021/03/28 05:15:58;;;;;;;11.97;9.17;;;;;;;3.56;100.00;95658.75;5094253;28;20196;-82
2021/03/28 05:19:06;;;;;;;11.17;8.97;;;;;;;3.72;100.00;95641.88;5094312;28;20281;-82
2021/03/28 05:22:20;;;;;;;10.07;8.40;;;;;;;3.65;100.00;95661.53;5093686;28;20322;-83
2021/03/28 05:25:16;;;;;;;17.70;9.93;;;;;;;3.97;100.00;95638.78;5051707;28;20289;-83
2021/03/28 05:28:15;;;;;;;11.73;8.47;;;;;;;4.12;100.00;95639.25;5076677;28;20205;-82
2021/03/28 05:31:22;;;;;;;12.97;9.17;;;;;;;4.31;100.00;95656.66;5094174;28;20184;-82
2021/03/28 05:34:30;;;;;;;11.07;8.13;;;;;;;4.56;100.00;95689.13;5093781;28;20186;-83
2021/03/28 05:37:25;;;;;;;9.63;8.73;;;;;;;4.72;100.00;95714.63;5079383;28;20676;-83
2021/03/28 05:40:15;;;;;;;14.13;10.57;;;;;;;4.94;100.00;95748.22;5090584;28;20672;-85
2021/03/28 05:43:25;;;;;;;12.17;9.47;;;;;;;5.06;100.00;95781.94;5091941;28;20637;-83
2021/03/28 05:46:05;;;;;;;7.77;6.33;;;;;;;5.18;100.00;95797.28;5093187;28;20206;-83
2021/03/28 05:48:51;;;;;;;8.83;7.20;;;;;;;5.34;100.00;95808.97;5093124;28;20191;-84
2021/03/28 05:51:41;;;;;;;10.83;8.20;;;;;;;5.51;100.00;95839.56;5093638;28;20718;-83
2021/03/28 05:54:43;;;;;;;10.07;7.47;;;;;;;5.66;100.00;95868.63;5091079;28;20203;-87
2021/03/28 05:58:01;;;;;;;11.80;7.30;;;;;;;5.82;100.00;95881.94;5080679;28;20257;-87
2021/03/28 06:00:48;;;;;;;13.37;9.30;;;;;;;6.05;100.00;95921.59;5031072;28;20194;-87
2021/03/28 06:03:39;;;;;;;11.20;9.27;;;;;;;6.29;100.00;95943.81;5031037;28;20187;-84
2021/03/28 06:06:49;;;;;;;15.50;10.40;;;;;;;6.47;100.00;95949.97;5030568;28;20207;-85
2021/03/28 06:09:56;;;;;;;9.00;7.30;;;;;;;6.76;100.00;95969.97;4976983;28;20669;-85
2021/03/28 06:12:34;;;;;;;7.93;6.20;;;;;;;7.06;100.00;96021.16;5030793;28;20733;-83
2021/03/28 06:15:15;;;;;;;5.73;4.97;;;;;;;7.33;100.00;96088.34;5030679;28;20183;-83
2021/03/28 06:18:17;;;;;;;7.67;5.20;;;;;;;7.53;100.00;96137.00;5029924;28;20194;-83
2021/03/28 06:21:14;;;;;;;5.67;5.07;;;;;;;7.75;100.00;96206.44;5029089;28;20229;-84
2021/03/28 06:24:14;;;;;;;5.70;5.13;;;;;;;7.99;100.00;96224.25;5027100;28;20622;-86
2021/03/28 06:27:14;;;;;;;6.83;5.00;;;;;;;8.19;100.00;96272.13;5030510;28;20230;-84
2021/03/28 06:30:26;;;;;;;6.03;4.83;;;;;;;8.37;100.00;96337.66;5005434;28;20234;-84
2021/03/28 06:33:14;;;;;;;6.33;4.80;;;;;;;8.53;100.00;96371.97;5091323;28;20283;-84
2021/03/28 06:36:25;;;;;;;6.83;4.97;;;;;;;8.67;100.00;96406.53;5092674;28;20191;-84
2021/03/28 06:39:31;;;;;;;7.20;6.50;;;;;;;8.89;100.00;96397.47;5092568;28;20199;-85
2021/03/28 06:42:39;;;;;;;6.67;5.87;;;;;;;9.09;100.00;96459.34;5071353;28;20184;-84
2021/03/28 06:45:47;;;;;;;7.03;5.83;;;;;;;9.22;100.00;96511.47;5070993;28;20203;-85
2021/03/28 06:49:12;;;;;;;6.53;4.87;;;;;;;9.44;100.00;96515.53;5053728;28;20344;-85
2021/03/28 06:52:00;;;;;;;7.33;5.17;;;;;;;9.67;100.00;96540.41;5048939;28;20221;-85
2021/03/28 06:55:14;;;;;;;7.10;5.67;;;;;;;9.89;100.00;96630.22;5050324;28;20201;-85
2021/03/28 06:58:07;;;;;;;8.37;5.03;;;;;;;10.03;100.00;96681.44;5067805;28;20670;-84
2021/03/28 07:01:19;;;;;;;7.37;5.87;;;;;;;10.21;100.00;96692.81;5071427;28;20189;-85
2021/03/28 07:04:13;;;;;;;6.97;6.27;;;;;;;10.34;100.00;96709.13;5071397;28;20193;-84
2021/03/28 07:06:45;;;;;;;7.53;6.30;;;;;;;10.57;100.00;96751.59;5071200;28;20642;-84
2021/03/28 07:09:35;;;;;;;8.07;6.03;;;;;;;10.63;100.00;96793.09;5071163;28;20194;-84
2021/03/28 07:12:06;;;;;;;7.47;6.10;;;;;;;10.81;100.00;96795.75;5071215;28;20562;-84
2021/03/28 07:15:09;;;;;;;8.63;5.60;;;;;;;11.00;100.00;96807.94;5071145;28;20185;-84
2021/03/28 07:18:03;;;;;;;6.73;5.10;;;;;;;11.28;100.00;96803.47;5071368;28;20624;-85
2021/03/28 07:21:08;;;;;;;8.97;6.90;;;;;;;11.38;100.00;96827.91;5071169;28;20224;-85
2021/03/28 07:23:55;;;;;;;10.93;7.23;;;;;;;11.54;100.00;96861.47;5070596;28;20279;-85
2021/03/28 07:26:43;;;;;;;12.80;6.97;;;;;;;11.81;100.00;96862.34;5071287;28;20280;-82
2021/03/28 07:30:00;;;;;;;10.10;5.73;;;;;;;12.01;100.00;96895.47;5071442;28;20246;-83
2021/03/28 07:33:15;;;;;;;8.77;7.17;;;;;;;12.39;100.00;96927.72;5048656;28;20758;-84
2021/03/28 07:36:06;;;;;;;11.70;7.40;;;;;;;12.70;100.00;96953.66;5008062;28;20733;-84
2021/03/28 07:39:08;;;;;;;8.40;6.93;;;;;;;12.63;100.00;96964.00;5066418;28;20285;-84
2021/03/28 07:42:22;;;;;;;7.43;6.53;;;;;;;12.98;100.00;96978.88;5062903;28;20639;-84
2021/03/28 07:45:23;;;;;;;9.03;7.00;;;;;;;13.37;100.00;96970.56;5076171;28;20177;-84
2021/03/28 07:48:23;;;;;;;6.60;6.00;;;;;;;13.67;100.00;97056.31;5075232;28;20186;-84
2021/03/28 07:51:23;;;;;;;6.77;4.87;;;;;;;13.63;100.00;97038.31;5075594;28;20192;-83
2021/03/28 07:54:21;;;;;;;7.40;6.47;;;;;;;13.72;100.00;97042.66;5075440;28;20209;-83
2021/03/28 07:57:09;;;;;;;8.63;6.00;;;;;;;14.30;100.00;97006.59;5075424;28;20272;-83
2021/03/28 07:59:56;;;;;;;7.23;5.30;;;;;;;14.64;100.00;97088.50;5075299;28;20204;-84
2021/03/28 08:03:08;;;;;;;8.50;6.43;;;;;;;14.68;100.00;97106.53;5075694;28;20264;-84
2021/03/28 08:05:54;;;;;;;10.43;6.30;;;;;;;15.02;100.00;97139.97;5035003;28;20658;-83
2021/03/28 08:08:43;;;;;;;16.13;14.00;;;;;;;14.97;100.00;97119.31;5075435;28;20197;-84
2021/03/28 08:11:39;;;;;;;9.10;8.33;;;;;;;15.48;100.00;97153.53;5074982;28;20239;-83
2021/03/28 08:14:44;;;;;;;7.03;6.40;;;;;;;15.33;100.00;97189.63;5075346;28;20610;-83
2021/03/28 08:17:43;;;;;;;8.10;7.30;;;;;;;15.92;100.00;97243.28;5075100;28;20580;-83
2021/03/28 08:20:45;;;;;;;7.17;6.17;;;;;;;16.08;100.00;97237.13;5074727;28;20231;-83
2021/03/28 08:23:37;;;;;;;9.97;6.27;;;;;;;16.55;100.00;97258.34;5048702;28;20281;-84
2021/03/28 08:26:38;;;;;;;7.77;7.07;;;;;;;17.06;100.00;97350.94;5074678;28;20407;-83
2021/03/28 08:29:42;;;;;;;7.10;5.83;;;;;;;17.29;100.00;97365.13;5073750;28;20205;-84
2021/03/28 08:32:37;;;;;;;5.37;4.50;;;;;;;17.74;100.00;97402.56;5074467;28;20587;-83
2021/03/28 08:35:31;;;;;;;7.90;5.77;;;;;;;17.90;100.00;97418.44;5074683;28;20637;-83
2021/03/28 08:38:26;;;;;;;5.73;5.13;;;;;;;17.87;100.00;97428.59;5072714;28;20200;-84
2021/03/28 08:41:16;;;;;;;6.47;5.37;;;;;;;18.06;100.00;97425.50;5071396;28;20202;-84
2021/03/28 08:44:21;;;;;;;8.63;7.10;;;;;;;18.36;100.00;97398.97;5074109;28;20183;-84
2021/03/28 08:47:28;;;;;;;8.33;5.20;;;;;;;17.91;100.00;97437.88;5074579;28;20619;-83
2021/03/28 08:49:59;;;;;;;5.03;4.63;;;;;;;18.13;100.00;97434.41;5074592;28;20204;-84
2021/03/28 08:53:17;;;;;;;6.80;5.27;;;;;;;17.93;100.00;97430.56;5074228;28;20243;-85
2021/03/28 08:56:25;;;;;;;5.77;5.00;;;;;;;18.42;100.00;97427.53;5051716;28;20207;-85
2021/03/28 08:58:58;;;;;;;5.50;5.00;;;;;;;18.43;100.00;97437.19;5060012;28;20759;-85
2021/03/28 09:01:38;;;;;;;5.60;4.97;;;;;;;18.66;100.00;97435.28;5074192;28;20214;-84
2021/03/28 09:04:13;;;;;;;8.63;6.13;;;;;;;18.45;100.00;97435.16;5074285;28;20220;-84
2021/03/28 09:07:06;;;;;;;6.50;5.07;;;;;;;18.54;100.00;97437.56;5074209;28;20637;-85
2021/03/28 09:09:41;;;;;;;6.37;5.67;;;;;;;18.82;100.00;97429.03;5073867;28;20672;-84
2021/03/28 09:12:32;;;;;;;10.63;6.53;;;;;;;18.62;100.00;97435.84;5073793;28;20205;-85
2021/03/28 09:15:21;;;;;;;6.90;6.20;;;;;;;18.83;100.00;97435.16;5073871;28;20196;-85
2021/03/28 09:18:03;;;;;;;6.27;4.87;;;;;;;18.95;100.00;97431.06;5072627;28;20669;-85
2021/03/28 09:20:52;;;;;;;5.67;5.03;;;;;;;19.08;100.00;97425.88;5073873;28;20185;-84
2021/03/28 09:23:39;;;;;;;7.63;5.83;;;;;;;19.78;100.00;97427.22;5074049;28;20234;-84
2021/03/28 09:26:21;;;;;;;4.53;4.00;;;;;;;19.69;100.00;97418.50;5073699;28;20196;-84
2021/03/28 09:29:02;;;;;;;5.50;4.93;;;;;;;19.84;100.00;97420.28;5073338;28;20185;-84
2021/03/28 09:31:36;;;;;;;7.13;5.00;;;;;;;19.81;100.00;97418.00;5075563;28;20334;-84
2021/03/28 09:34:19;;;;;;;4.90;4.50;;;;;;;19.63;100.00;97419.25;5072459;28;20258;-85
2021/03/28 09:36:59;;;;;;;6.27;5.00;;;;;;;19.88;100.00;97417.06;5073017;28;20554;-85
2021/03/28 09:40:09;;;;;;;7.27;4.70;;;;;;;20.25;100.00;97417.00;5073771;28;20188;-85
2021/03/28 09:43:23;;;;;;;9.53;5.10;;;;;;;20.11;100.00;97414.22;5051705;28;20224;-85
2021/03/28 09:46:15;;;;;;;5.90;4.97;;;;;;;20.54;100.00;97416.88;5073620;28;20268;-86
2021/03/28 09:49:15;;;;;;;5.37;4.80;;;;;;;20.86;100.00;97411.97;5066483;28;20197;-85
2021/03/28 09:52:18;;;;;;;6.63;6.03;;;;;;;20.54;100.00;97416.88;5073067;28;21003;-86
2021/03/28 09:55:31;;;;;;;4.80;4.40;;;;;;;19.98;100.00;97416.75;5073701;28;20239;-85
2021/03/28 09:58:28;;;;;;;5.07;4.57;;;;;;;21.04;100.00;97404.28;5073000;28;20201;-86
2021/03/28 10:01:07;;;;;;;5.40;4.63;;;;;;;20.97;100.00;97403.41;5073017;28;20673;-86
2021/03/28 10:03:44;;;;;;;6.67;5.93;;;;;;;20.60;100.00;97404.59;5073033;28;20185;-86
2021/03/28 10:06:16;;;;;;;7.37;5.00;;;;;;;20.37;100.00;97416.31;5072172;28;20221;-85
2021/03/28 10:08:50;;;;;;;4.87;4.40;;;;;;;20.73;100.00;97406.53;5072871;28;20189;-85
2021/03/28 10:11:34;;;;;;;6.80;5.57;;;;;;;20.77;100.00;97405.13;5073230;28;20542;-85
2021/03/28 10:14:18;;;;;;;8.17;6.30;;;;;;;20.67;100.00;97400.94;5072691;28;20259;-86
2021/03/28 10:16:52;;;;;;;6.97;5.83;;;;;;;20.56;100.00;97400.66;5072744;28;20314;-85
2021/03/28 10:19:25;;;;;;;4.80;4.30;;;;;;;20.69;100.00;97405.28;5072778;28;20180;-86
2021/03/28 10:22:25;;;;;;;4.97;4.47;;;;;;;21.23;100.00;97405.38;5072352;28;20240;-85
2021/03/28 10:25:24;;;;;;;5.53;5.00;;;;;;;21.14;100.00;97404.75;5072743;28;20288;-86
2021/03/28 10:28:24;;;;;;;6.77;4.67;;;;;;;20.93;100.00;97396.81;5072491;28;20197;-86
2021/03/28 10:31:05;;;;;;;5.10;4.57;;;;;;;21.09;100.00;97388.47;5072496;28;20232;-87
2021/03/28 10:34:01;;;;;;;5.43;4.90;;;;;;;21.34;100.00;97396.03;5072656;28;20252;-86
2021/03/28 10:36:41;;;;;;;5.30;4.73;;;;;;;21.30;100.00;97389.38;5072439;28;20217;-86
2021/03/28 10:39:38;;;;;;;6.50;5.27;;;;;;;21.19;100.00;97387.28;5072401;28;20190;-86
2021/03/28 10:42:28;;;;;;;6.07;5.47;;;;;;;21.52;100.00;97398.97;5078174;28;20228;-86
2021/03/28 10:45:20;;;;;;;8.47;5.23;;;;;;;20.92;100.00;97386.31;5092606;28;20714;-86
2021/03/28 10:48:14;;;;;;;8.23;4.77;;;;;;;20.12;100.00;97394.50;5092605;28;20205;-86
2021/03/28 10:51:21;;;;;;;6.63;5.40;;;;;;;19.89;100.00;97372.53;5092731;28;20634;-86
2021/03/28 10:54:08;;;;;;;6.00;5.40;;;;;;;20.04;100.00;97383.97;5092292;28;20227;-85
2021/03/28 10:56:57;;;;;;;6.80;5.50;;;;;;;20.49;100.00;97381.88;5092403;28;20193;-85
2021/03/28 10:59:58;;;;;;;6.70;5.63;;;;;;;20.66;100.00;97385.94;5092691;28;20612;-84
2021/03/28 11:03:06;;;;;;;6.43;5.73;;;;;;;20.58;100.00;97378.09;5092283;28;20212;-85
2021/03/28 11:06:05;;;;;;;6.77;6.07;;;;;;;20.42;100.00;97381.81;5092407;28;20672;-85
2021/03/28 11:09:10;;;;;;;7.40;5.57;;;;;;;20.59;100.00;97378.91;5092327;28;20567;-85
2021/03/28 11:12:05;;;;;;;7.97;7.20;;;;;;;21.18;100.00;97375.75;5091983;28;20191;-85
2021/03/28 11:15:04;;;;;;;9.17;7.67;;;;;;;20.59;100.00;97376.25;5074480;28;20239;-86
2021/03/28 11:18:02;;;;;;;9.13;7.70;;;;;;;20.03;100.00;97377.00;5090768;28;20196;-86
2021/03/28 11:20:34;;;;;;;7.73;7.03;;;;;;;20.66;100.00;97361.06;5092367;28;20207;-86
2021/03/28 11:23:47;;;;;;;8.70;5.70;;;;;;;20.57;100.00;97363.06;5091605;28;20219;-86
2021/03/28 11:26:53;;;;;;;5.23;4.70;;;;;;;20.90;100.00;97368.63;5029597;28;20210;-85
2021/03/28 11:29:42;;;;;;;5.90;5.03;;;;;;;21.04;100.00;97353.47;5029781;28;20202;-84
2021/03/28 11:32:21;;;;;;;7.23;5.40;;;;;;;20.75;100.00;97354.56;5090035;28;20197;-85
2021/03/28 11:35:16;;;;;;;6.70;6.10;;;;;;;20.67;100.00;97352.84;5093895;28;20212;-85
2021/03/28 11:37:47;;;;;;;6.87;5.23;;;;;;;21.16;100.00;97360.94;5091648;28;20180;-85
2021/03/28 11:40:27;;;;;;;7.07;5.47;;;;;;;21.07;100.00;97354.94;5091799;28;20183;-85
2021/03/28 11:43:33;;;;;;;14.23;6.60;;;;;;;21.51;100.00;97351.00;5091795;28;20219;-85
2021/03/28 11:46:25;;;;;;;6.20;5.00;;;;;;;21.07;100.00;97345.06;5091457;28;20200;-85
2021/03/28 11:49:13;;;;;;;13.13;10.73;;;;;;;21.23;100.00;97340.41;5091890;28;20193;-85
2021/03/28 11:52:27;;;;;;;10.13;7.27;;;;;;;21.08;100.00;97351.25;5091494;28;20181;-85
2021/03/28 11:55:12;;;;;;;5.70;5.20;;;;;;;21.01;100.00;97348.53;5029542;28;20270;-86
2021/03/28 11:57:40;;;;;;;5.40;4.87;;;;;;;20.99;100.00;97350.59;5084850;28;20628;-85
2021/03/28 12:00:40;;;;;;;6.63;6.00;;;;;;;21.94;100.00;97348.84;5091752;28;20688;-86
2021/03/28 12:03:25;;;;;;;6.83;6.13;;;;;;;22.30;100.00;97344.97;5091549;28;20177;-85
2021/03/28 12:05:57;;;;;;;7.57;6.83;;;;;;;21.74;100.00;97342.63;5091676;28;20208;-86
2021/03/28 12:08:29;;;;;;;8.07;7.20;;;;;;;21.83;100.00;97346.78;5091544;28;20196;-85
2021/03/28 12:11:19;;;;;;;10.87;6.47;;;;;;;21.81;100.00;97349.66;5091660;28;20653;-86
2021/03/28 12:13:49;;;;;;;6.40;5.83;;;;;;;22.15;100.00;97347.03;5091167;28;20217;-86
2021/03/28 12:16:16;;;;;;;7.50;6.17;;;;;;;22.26;100.00;97341.06;5091171;28;20261;-85
2021/03/28 12:19:00;;;;;;;6.90;6.20;;;;;;;22.19;100.00;97345.59;5091380;28;20192;-86
2021/03/28 12:21:38;;;;;;;7.37;6.27;;;;;;;21.22;100.00;97341.44;5091405;28;20707;-85
2021/03/28 12:24:07;;;;;;;8.83;6.10;;;;;;;21.47;100.00;97339.88;5091821;28;20602;-85
2021/03/28 12:27:04;;;;;;;7.13;6.23;;;;;;;20.72;100.00;97335.44;5091329;28;20689;-86
2021/03/28 12:29:44;;;;;;;9.00;5.97;;;;;;;20.82;100.00;97331.38;5090537;28;20199;-84
2021/03/28 12:32:50;;;;;;;13.73;6.87;;;;;;;20.63;100.00;97327.56;5094603;28;20580;-84
2021/03/28 12:35:58;;;;;;;7.53;6.07;;;;;;;20.89;100.00;97336.78;5095114;28;20221;-87
2021/03/28 12:38:46;;;;;;;13.77;9.27;;;;;;;21.23;100.00;97322.50;5094499;28;20204;-86
2021/03/28 12:41:21;;;;;;;8.83;5.83;;;;;;;20.47;100.00;97329.69;5095507;28;20568;-86
2021/03/28 12:43:54;;;;;;;10.63;9.07;;;;;;;20.64;100.00;97323.91;5094474;28;20192;-86
2021/03/28 12:46:57;;;;;;;8.47;6.90;;;;;;;20.90;100.00;97338.41;5094499;28;20177;-85
2021/03/28 12:49:29;;;;;;;6.97;6.27;;;;;;;20.01;100.00;97333.66;5087572;28;20200;-87
2021/03/28 12:52:16;;;;;;;7.60;6.90;;;;;;;20.48;100.00;97323.34;5094838;28;20181;-87
2021/03/28 12:55:12;;;;;;;6.00;5.30;;;;;;;20.58;100.00;97327.34;5095120;28;20181;-87
2021/03/28 12:57:40;;;;;;;6.37;5.27;;;;;;;20.72;100.00;97327.44;5095114;28;20234;-87
2021/03/28 13:00:18;;;;;;;6.93;6.20;;;;;;;20.74;100.00;97328.03;5094586;28;20196;-87
2021/03/28 13:02:47;;;;;;;6.93;6.30;;;;;;;20.50;100.00;97340.81;5094908;28;20245;-87
2021/03/28 13:05:25;;;;;;;7.60;6.07;;;;;;;20.44;100.00;97330.91;5095060;28;20200;-87
2021/03/28 13:07:55;;;;;;;6.67;6.07;;;;;;;20.50;100.00;97331.97;5095083;28;20223;-87
2021/03/28 13:10:27;;;;;;;8.57;6.07;;;;;;;20.59;100.00;97333.50;5095114;28;20621;-87